sensor_id;sensor_type;location;lat;lon;timestamp;P1;durP1;ratioP1;P2;durP2;ratioP2
48522;SDS011;34315;50.150;11.070;2023-06-22T00:00:51;13.95;;;11.63;;
48522;SDS011;34315;50.150;11.070;2023-06-22T00:05:53;14.60;;;11.30;;
48522;SDS011;34315;50.150;11.070;2023-06-22T00:10:54;12.80;;;11.13;;
48522;SDS011;34315;50.150;11.070;2023-06-22T00:15:55;21.80;;;16.27;;
48522;SDS011;34315;50.150;11.070;2023-06-22T00:20:56;15.07;;;12.52;;
48522;SDS011;34315;50.150;11.070;2023-06-22T00:25:58;13.82;;;11.95;;
48522;SDS011;34315;50.150;11.070;2023-06-22T00:30:59;15.90;;;12.05;;
48522;SDS011;34315;50.150;11.070;2023-06-22T00:36:01;13.65;;;11.95;;
48522;SDS011;34315;50.150;11.070;2023-06-22T00:41:04;14.65;;;12.13;;
48522;SDS011;34315;50.150;11.070;2023-06-22T00:46:05;13.15;;;11.75;;
48522;SDS011;34315;50.150;11.070;2023-06-22T00:51:07;16.83;;;12.05;;
48522;SDS011;34315;50.150;11.070;2023-06-22T00:56:08;17.63;;;12.57;;
48522;SDS011;34315;50.150;11.070;2023-06-22T01:01:10;14.20;;;12.15;;
48522;SDS011;34315;50.150;11.070;2023-06-22T01:06:13;14.38;;;11.48;;
48522;SDS011;34315;50.150;11.070;2023-06-22T01:16:20;13.85;;;12.35;;
48522;SDS011;34315;50.150;11.070;2023-06-22T01:21:28;17.05;;;12.07;;
48522;SDS011;34315;50.150;11.070;2023-06-22T01:31:40;16.15;;;11.98;;
48522;SDS011;34315;50.150;11.070;2023-06-22T01:36:43;14.25;;;12.00;;
48522;SDS011;34315;50.150;11.070;2023-06-22T01:41:45;15.80;;;12.25;;
48522;SDS011;34315;50.150;11.070;2023-06-22T01:46:49;15.27;;;11.48;;
48522;SDS011;34315;50.150;11.070;2023-06-22T01:51:51;13.18;;;11.45;;
48522;SDS011;34315;50.150;11.070;2023-06-22T01:56:52;15.25;;;11.98;;
48522;SDS011;34315;50.150;11.070;2023-06-22T02:01:58;14.75;;;12.18;;
48522;SDS011;34315;50.150;11.070;2023-06-22T02:07:02;18.38;;;12.43;;
48522;SDS011;34315;50.150;11.070;2023-06-22T02:12:08;18.00;;;11.80;;
48522;SDS011;34315;50.150;11.070;2023-06-22T02:17:11;15.85;;;11.77;;
48522;SDS011;34315;50.150;11.070;2023-06-22T02:22:12;15.00;;;11.98;;
48522;SDS011;34315;50.150;11.070;2023-06-22T02:27:14;14.05;;;12.13;;
48522;SDS011;34315;50.150;11.070;2023-06-22T02:32:15;16.42;;;12.40;;
48522;SDS011;34315;50.150;11.070;2023-06-22T02:37:21;16.58;;;12.45;;
48522;SDS011;34315;50.150;11.070;2023-06-22T02:42:25;19.33;;;13.05;;
48522;SDS011;34315;50.150;11.070;2023-06-22T02:47:26;16.15;;;12.98;;
48522;SDS011;34315;50.150;11.070;2023-06-22T02:52:28;18.63;;;13.60;;
48522;SDS011;34315;50.150;11.070;2023-06-22T02:57:29;16.20;;;12.57;;
48522;SDS011;34315;50.150;11.070;2023-06-22T03:02:31;16.20;;;13.73;;
48522;SDS011;34315;50.150;11.070;2023-06-22T03:07:32;16.38;;;13.75;;
48522;SDS011;34315;50.150;11.070;2023-06-22T03:12:36;15.63;;;13.67;;
48522;SDS011;34315;50.150;11.070;2023-06-22T03:17:40;15.48;;;12.95;;
48522;SDS011;34315;50.150;11.070;2023-06-22T03:22:42;17.13;;;13.27;;
48522;SDS011;34315;50.150;11.070;2023-06-22T03:27:44;16.40;;;13.00;;
48522;SDS011;34315;50.150;11.070;2023-06-22T03:32:45;16.20;;;13.77;;
48522;SDS011;34315;50.150;11.070;2023-06-22T03:37:47;15.10;;;13.02;;
48522;SDS011;34315;50.150;11.070;2023-06-22T03:42:48;17.65;;;13.40;;
48522;SDS011;34315;50.150;11.070;2023-06-22T03:47:49;14.80;;;13.20;;
48522;SDS011;34315;50.150;11.070;2023-06-22T03:52:52;16.60;;;13.65;;
48522;SDS011;34315;50.150;11.070;2023-06-22T03:57:53;14.77;;;12.85;;
48522;SDS011;34315;50.150;11.070;2023-06-22T04:02:57;16.90;;;13.15;;
48522;SDS011;34315;50.150;11.070;2023-06-22T04:07:58;14.68;;;12.48;;
48522;SDS011;34315;50.150;11.070;2023-06-22T04:13:00;15.63;;;12.63;;
48522;SDS011;34315;50.150;11.070;2023-06-22T04:18:01;16.40;;;13.57;;
48522;SDS011;34315;50.150;11.070;2023-06-22T04:23:02;16.02;;;12.63;;
48522;SDS011;34315;50.150;11.070;2023-06-22T04:28:03;14.32;;;12.35;;
48522;SDS011;34315;50.150;11.070;2023-06-22T04:33:05;12.77;;;10.75;;
48522;SDS011;34315;50.150;11.070;2023-06-22T04:38:06;13.80;;;10.70;;
48522;SDS011;34315;50.150;11.070;2023-06-22T04:43:07;12.98;;;11.38;;
48522;SDS011;34315;50.150;11.070;2023-06-22T04:48:10;15.80;;;12.70;;
48522;SDS011;34315;50.150;11.070;2023-06-22T04:53:16;14.05;;;12.00;;
48522;SDS011;34315;50.150;11.070;2023-06-22T04:58:17;15.88;;;11.98;;
48522;SDS011;34315;50.150;11.070;2023-06-22T05:03:20;14.93;;;12.43;;
48522;SDS011;34315;50.150;11.070;2023-06-22T05:08:21;18.58;;;12.88;;
48522;SDS011;34315;50.150;11.070;2023-06-22T05:13:27;16.38;;;12.68;;
48522;SDS011;34315;50.150;11.070;2023-06-22T05:18:28;14.60;;;11.40;;
48522;SDS011;34315;50.150;11.070;2023-06-22T05:23:30;17.20;;;12.70;;
48522;SDS011;34315;50.150;11.070;2023-06-22T05:28:31;14.65;;;12.05;;
48522;SDS011;34315;50.150;11.070;2023-06-22T05:33:33;13.20;;;11.50;;
48522;SDS011;34315;50.150;11.070;2023-06-22T05:38:34;14.85;;;11.20;;
48522;SDS011;34315;50.150;11.070;2023-06-22T05:43:35;14.25;;;11.63;;
48522;SDS011;34315;50.150;11.070;2023-06-22T05:48:37;12.85;;;10.95;;
48522;SDS011;34315;50.150;11.070;2023-06-22T05:53:38;15.75;;;11.25;;
48522;SDS011;34315;50.150;11.070;2023-06-22T05:58:39;13.30;;;10.55;;
48522;SDS011;34315;50.150;11.070;2023-06-22T06:03:40;12.48;;;11.18;;
48522;SDS011;34315;50.150;11.070;2023-06-22T06:08:41;14.93;;;10.98;;
48522;SDS011;34315;50.150;11.070;2023-06-22T06:13:43;12.70;;;10.50;;
48522;SDS011;34315;50.150;11.070;2023-06-22T06:18:44;13.02;;;11.10;;
48522;SDS011;34315;50.150;11.070;2023-06-22T06:23:45;16.65;;;11.50;;
48522;SDS011;34315;50.150;11.070;2023-06-22T06:28:46;12.52;;;11.23;;
48522;SDS011;34315;50.150;11.070;2023-06-22T06:33:47;14.35;;;11.30;;
48522;SDS011;34315;50.150;11.070;2023-06-22T06:38:48;13.98;;;11.40;;
48522;SDS011;34315;50.150;11.070;2023-06-22T06:43:49;12.90;;;11.52;;
48522;SDS011;34315;50.150;11.070;2023-06-22T06:48:50;12.68;;;10.77;;
48522;SDS011;34315;50.150;11.070;2023-06-22T06:53:52;12.27;;;10.75;;
48522;SDS011;34315;50.150;11.070;2023-06-22T06:58:53;11.98;;;10.00;;
48522;SDS011;34315;50.150;11.070;2023-06-22T07:03:54;12.02;;;10.00;;
48522;SDS011;34315;50.150;11.070;2023-06-22T07:08:56;13.48;;;9.70;;
48522;SDS011;34315;50.150;11.070;2023-06-22T07:13:57;12.07;;;9.43;;
48522;SDS011;34315;50.150;11.070;2023-06-22T07:18:58;12.38;;;9.27;;
48522;SDS011;34315;50.150;11.070;2023-06-22T07:23:59;11.55;;;8.70;;
48522;SDS011;34315;50.150;11.070;2023-06-22T07:29:00;10.05;;;8.35;;
48522;SDS011;34315;50.150;11.070;2023-06-22T07:34:01;9.90;;;8.00;;
48522;SDS011;34315;50.150;11.070;2023-06-22T07:39:03;10.90;;;8.40;;
48522;SDS011;34315;50.150;11.070;2023-06-22T07:44:04;11.05;;;8.27;;
48522;SDS011;34315;50.150;11.070;2023-06-22T07:49:07;9.85;;;8.20;;
48522;SDS011;34315;50.150;11.070;2023-06-22T07:54:09;11.48;;;8.13;;
48522;SDS011;34315;50.150;11.070;2023-06-22T07:59:10;9.57;;;7.85;;
48522;SDS011;34315;50.150;11.070;2023-06-22T08:04:11;8.93;;;7.60;;
48522;SDS011;34315;50.150;11.070;2023-06-22T08:09:12;9.82;;;7.15;;
48522;SDS011;34315;50.150;11.070;2023-06-22T08:14:13;9.25;;;7.82;;
48522;SDS011;34315;50.150;11.070;2023-06-22T08:19:14;9.55;;;7.50;;
48522;SDS011;34315;50.150;11.070;2023-06-22T08:24:15;8.80;;;7.40;;
48522;SDS011;34315;50.150;11.070;2023-06-22T08:29:17;9.57;;;7.15;;
48522;SDS011;34315;50.150;11.070;2023-06-22T08:34:18;10.32;;;7.18;;
48522;SDS011;34315;50.150;11.070;2023-06-22T08:39:23;8.93;;;7.35;;
48522;SDS011;34315;50.150;11.070;2023-06-22T08:44:25;8.52;;;7.20;;
48522;SDS011;34315;50.150;11.070;2023-06-22T08:49:26;9.98;;;6.85;;
48522;SDS011;34315;50.150;11.070;2023-06-22T08:54:27;8.52;;;7.05;;
48522;SDS011;34315;50.150;11.070;2023-06-22T08:59:28;8.48;;;6.82;;
48522;SDS011;34315;50.150;11.070;2023-06-22T09:04:29;9.63;;;6.55;;
48522;SDS011;34315;50.150;11.070;2023-06-22T09:09:33;9.45;;;6.95;;
48522;SDS011;34315;50.150;11.070;2023-06-22T09:14:34;8.45;;;6.70;;
48522;SDS011;34315;50.150;11.070;2023-06-22T09:19:35;7.72;;;6.68;;
48522;SDS011;34315;50.150;11.070;2023-06-22T09:24:36;9.35;;;6.82;;
48522;SDS011;34315;50.150;11.070;2023-06-22T09:29:37;8.15;;;6.30;;
48522;SDS011;34315;50.150;11.070;2023-06-22T09:34:38;7.43;;;6.55;;
48522;SDS011;34315;50.150;11.070;2023-06-22T09:39:39;9.90;;;6.47;;
48522;SDS011;34315;50.150;11.070;2023-06-22T09:44:40;10.02;;;6.65;;
48522;SDS011;34315;50.150;11.070;2023-06-22T09:49:42;8.82;;;6.38;;
48522;SDS011;34315;50.150;11.070;2023-06-22T09:54:43;7.15;;;6.30;;
48522;SDS011;34315;50.150;11.070;2023-06-22T09:59:44;7.85;;;5.47;;
48522;SDS011;34315;50.150;11.070;2023-06-22T10:04:45;7.85;;;5.22;;
48522;SDS011;34315;50.150;11.070;2023-06-22T10:09:46;7.32;;;5.38;;
48522;SDS011;34315;50.150;11.070;2023-06-22T10:14:47;8.82;;;5.38;;
48522;SDS011;34315;50.150;11.070;2023-06-22T10:19:48;8.40;;;5.32;;
48522;SDS011;34315;50.150;11.070;2023-06-22T10:24:49;7.85;;;5.43;;
48522;SDS011;34315;50.150;11.070;2023-06-22T10:29:50;9.25;;;5.57;;
48522;SDS011;34315;50.150;11.070;2023-06-22T10:34:52;9.20;;;5.00;;
48522;SDS011;34315;50.150;11.070;2023-06-22T10:39:53;7.03;;;4.90;;
48522;SDS011;34315;50.150;11.070;2023-06-22T10:44:54;7.43;;;5.35;;
48522;SDS011;34315;50.150;11.070;2023-06-22T10:49:55;9.20;;;5.55;;
48522;SDS011;34315;50.150;11.070;2023-06-22T10:54:56;8.35;;;6.15;;
48522;SDS011;34315;50.150;11.070;2023-06-22T10:59:57;8.20;;;5.30;;
48522;SDS011;34315;50.150;11.070;2023-06-22T11:04:58;8.50;;;5.53;;
48522;SDS011;34315;50.150;11.070;2023-06-22T11:10:01;9.13;;;5.55;;
48522;SDS011;34315;50.150;11.070;2023-06-22T11:15:02;7.65;;;5.70;;
48522;SDS011;34315;50.150;11.070;2023-06-22T11:20:03;8.75;;;5.75;;
48522;SDS011;34315;50.150;11.070;2023-06-22T11:25:11;7.60;;;5.55;;
48522;SDS011;34315;50.150;11.070;2023-06-22T11:30:12;6.72;;;5.22;;
48522;SDS011;34315;50.150;11.070;2023-06-22T11:35:14;7.82;;;6.03;;
48522;SDS011;34315;50.150;11.070;2023-06-22T11:40:15;8.75;;;5.40;;
48522;SDS011;34315;50.150;11.070;2023-06-22T11:45:18;6.88;;;5.55;;
48522;SDS011;34315;50.150;11.070;2023-06-22T11:50:19;7.72;;;5.43;;
48522;SDS011;34315;50.150;11.070;2023-06-22T11:55:20;7.47;;;5.28;;
48522;SDS011;34315;50.150;11.070;2023-06-22T12:00:21;8.52;;;5.40;;
48522;SDS011;34315;50.150;11.070;2023-06-22T12:05:24;6.38;;;4.82;;
48522;SDS011;34315;50.150;11.070;2023-06-22T12:10:26;9.40;;;6.20;;
48522;SDS011;34315;50.150;11.070;2023-06-22T12:15:29;8.93;;;5.68;;
48522;SDS011;34315;50.150;11.070;2023-06-22T12:20:30;6.85;;;4.90;;
48522;SDS011;34315;50.150;11.070;2023-06-22T12:25:31;9.30;;;5.18;;
48522;SDS011;34315;50.150;11.070;2023-06-22T12:30:32;8.27;;;4.60;;
48522;SDS011;34315;50.150;11.070;2023-06-22T12:35:34;7.38;;;5.40;;
48522;SDS011;34315;50.150;11.070;2023-06-22T12:40:35;8.00;;;5.07;;
48522;SDS011;34315;50.150;11.070;2023-06-22T12:45:36;9.68;;;5.15;;
48522;SDS011;34315;50.150;11.070;2023-06-22T12:50:37;6.90;;;4.72;;
48522;SDS011;34315;50.150;11.070;2023-06-22T12:55:39;8.98;;;5.28;;
48522;SDS011;34315;50.150;11.070;2023-06-22T13:00:40;8.75;;;5.68;;
48522;SDS011;34315;50.150;11.070;2023-06-22T13:05:41;9.98;;;5.57;;
48522;SDS011;34315;50.150;11.070;2023-06-22T13:10:42;13.93;;;5.38;;
48522;SDS011;34315;50.150;11.070;2023-06-22T13:15:43;8.02;;;5.45;;
48522;SDS011;34315;50.150;11.070;2023-06-22T13:20:44;8.25;;;5.10;;
48522;SDS011;34315;50.150;11.070;2023-06-22T13:25:46;9.85;;;5.40;;
48522;SDS011;34315;50.150;11.070;2023-06-22T13:30:47;7.93;;;5.53;;
48522;SDS011;34315;50.150;11.070;2023-06-22T13:35:48;10.10;;;4.78;;
48522;SDS011;34315;50.150;11.070;2023-06-22T13:40:49;7.75;;;5.05;;
48522;SDS011;34315;50.150;11.070;2023-06-22T13:45:50;9.05;;;5.43;;
48522;SDS011;34315;50.150;11.070;2023-06-22T13:50:52;8.00;;;5.03;;
48522;SDS011;34315;50.150;11.070;2023-06-22T13:55:53;11.45;;;5.75;;
48522;SDS011;34315;50.150;11.070;2023-06-22T14:00:54;9.25;;;5.25;;
48522;SDS011;34315;50.150;11.070;2023-06-22T14:05:55;10.27;;;5.10;;
48522;SDS011;34315;50.150;11.070;2023-06-22T14:10:57;9.45;;;5.10;;
48522;SDS011;34315;50.150;11.070;2023-06-22T14:15:58;20.65;;;5.45;;
48522;SDS011;34315;50.150;11.070;2023-06-22T14:20:59;12.23;;;5.00;;
48522;SDS011;34315;50.150;11.070;2023-06-22T14:26:00;9.10;;;5.35;;
48522;SDS011;34315;50.150;11.070;2023-06-22T14:31:01;8.73;;;5.47;;
48522;SDS011;34315;50.150;11.070;2023-06-22T14:36:02;8.98;;;5.05;;
48522;SDS011;34315;50.150;11.070;2023-06-22T14:41:04;9.75;;;5.90;;
48522;SDS011;34315;50.150;11.070;2023-06-22T14:46:05;20.38;;;5.82;;
48522;SDS011;34315;50.150;11.070;2023-06-22T14:51:06;7.50;;;5.53;;
48522;SDS011;34315;50.150;11.070;2023-06-22T14:56:08;17.17;;;5.60;;
48522;SDS011;34315;50.150;11.070;2023-06-22T15:01:09;8.90;;;5.32;;
48522;SDS011;34315;50.150;11.070;2023-06-22T15:06:10;9.70;;;5.43;;
48522;SDS011;34315;50.150;11.070;2023-06-22T15:11:11;10.38;;;5.05;;
48522;SDS011;34315;50.150;11.070;2023-06-22T15:16:13;10.95;;;5.30;;
48522;SDS011;34315;50.150;11.070;2023-06-22T15:21:14;7.60;;;5.28;;
48522;SDS011;34315;50.150;11.070;2023-06-22T15:26:15;13.30;;;5.68;;
48522;SDS011;34315;50.150;11.070;2023-06-22T15:31:16;14.10;;;5.78;;
48522;SDS011;34315;50.150;11.070;2023-06-22T15:36:18;10.25;;;5.05;;
48522;SDS011;34315;50.150;11.070;2023-06-22T15:41:19;11.13;;;5.47;;
48522;SDS011;34315;50.150;11.070;2023-06-22T15:46:20;13.55;;;5.63;;
48522;SDS011;34315;50.150;11.070;2023-06-22T15:51:21;15.10;;;5.90;;
48522;SDS011;34315;50.150;11.070;2023-06-22T15:56:23;8.50;;;5.45;;
48522;SDS011;34315;50.150;11.070;2023-06-22T16:06:26;12.38;;;6.15;;
48522;SDS011;34315;50.150;11.070;2023-06-22T16:11:27;14.57;;;5.80;;
48522;SDS011;34315;50.150;11.070;2023-06-22T16:16:30;11.40;;;5.30;;
48522;SDS011;34315;50.150;11.070;2023-06-22T16:21:31;15.73;;;6.55;;
48522;SDS011;34315;50.150;11.070;2023-06-22T16:26:37;12.85;;;6.68;;
48522;SDS011;34315;50.150;11.070;2023-06-22T16:31:39;14.60;;;5.65;;
48522;SDS011;34315;50.150;11.070;2023-06-22T16:36:40;14.93;;;5.82;;
48522;SDS011;34315;50.150;11.070;2023-06-22T16:41:41;12.07;;;6.07;;
48522;SDS011;34315;50.150;11.070;2023-06-22T16:46:43;11.77;;;6.03;;
48522;SDS011;34315;50.150;11.070;2023-06-22T16:51:44;11.97;;;6.37;;
48522;SDS011;34315;50.150;11.070;2023-06-22T16:56:46;10.95;;;6.00;;
48522;SDS011;34315;50.150;11.070;2023-06-22T17:01:48;12.27;;;6.10;;
48522;SDS011;34315;50.150;11.070;2023-06-22T17:07:27;14.63;;;6.25;;
48522;SDS011;34315;50.150;11.070;2023-06-22T17:12:21;13.50;;;6.03;;
48522;SDS011;34315;50.150;11.070;2023-06-22T17:17:23;15.43;;;6.60;;
48522;SDS011;34315;50.150;11.070;2023-06-22T17:22:28;9.95;;;5.80;;
48522;SDS011;34315;50.150;11.070;2023-06-22T17:27:36;14.55;;;6.70;;
48522;SDS011;34315;50.150;11.070;2023-06-22T17:32:37;19.77;;;6.63;;
48522;SDS011;34315;50.150;11.070;2023-06-22T17:38:00;12.23;;;6.22;;
48522;SDS011;34315;50.150;11.070;2023-06-22T17:43:04;9.35;;;5.55;;
48522;SDS011;34315;50.150;11.070;2023-06-22T17:48:08;13.45;;;6.80;;
48522;SDS011;34315;50.150;11.070;2023-06-22T17:53:10;13.27;;;6.20;;
48522;SDS011;34315;50.150;11.070;2023-06-22T17:58:12;9.45;;;6.18;;
48522;SDS011;34315;50.150;11.070;2023-06-22T18:03:14;13.40;;;6.57;;
48522;SDS011;34315;50.150;11.070;2023-06-22T18:08:15;10.68;;;6.13;;
48522;SDS011;34315;50.150;11.070;2023-06-22T18:13:22;13.65;;;6.43;;
48522;SDS011;34315;50.150;11.070;2023-06-22T18:18:23;14.02;;;5.70;;
48522;SDS011;34315;50.150;11.070;2023-06-22T18:23:25;12.27;;;5.95;;
48522;SDS011;34315;50.150;11.070;2023-06-22T18:28:27;20.15;;;8.25;;
48522;SDS011;34315;50.150;11.070;2023-06-22T18:33:28;15.85;;;7.25;;
48522;SDS011;34315;50.150;11.070;2023-06-22T18:38:30;10.77;;;5.22;;
48522;SDS011;34315;50.150;11.070;2023-06-22T18:43:35;13.57;;;5.75;;
48522;SDS011;34315;50.150;11.070;2023-06-22T18:48:37;14.18;;;6.07;;
48522;SDS011;34315;50.150;11.070;2023-06-22T18:53:38;11.65;;;5.85;;
48522;SDS011;34315;50.150;11.070;2023-06-22T18:58:42;12.77;;;5.22;;
48522;SDS011;34315;50.150;11.070;2023-06-22T19:03:44;13.48;;;4.90;;
48522;SDS011;34315;50.150;11.070;2023-06-22T19:14:19;17.00;;;5.72;;
48522;SDS011;34315;50.150;11.070;2023-06-22T19:19:24;15.25;;;5.55;;
48522;SDS011;34315;50.150;11.070;2023-06-22T19:24:32;12.38;;;5.13;;
48522;SDS011;34315;50.150;11.070;2023-06-22T19:29:52;15.90;;;6.03;;
48522;SDS011;34315;50.150;11.070;2023-06-22T19:34:53;14.65;;;6.43;;
48522;SDS011;34315;50.150;11.070;2023-06-22T19:39:54;13.02;;;5.32;;
48522;SDS011;34315;50.150;11.070;2023-06-22T19:44:57;17.40;;;6.43;;
48522;SDS011;34315;50.150;11.070;2023-06-22T19:49:58;15.33;;;6.40;;
48522;SDS011;34315;50.150;11.070;2023-06-22T19:55:00;10.50;;;5.55;;
48522;SDS011;34315;50.150;11.070;2023-06-22T20:00:02;16.52;;;5.70;;
48522;SDS011;34315;50.150;11.070;2023-06-22T20:05:12;10.68;;;5.20;;
48522;SDS011;34315;50.150;11.070;2023-06-22T20:10:15;13.27;;;5.60;;
48522;SDS011;34315;50.150;11.070;2023-06-22T20:20:23;11.23;;;5.07;;
48522;SDS011;34315;50.150;11.070;2023-06-22T20:25:25;17.67;;;5.55;;
48522;SDS011;34315;50.150;11.070;2023-06-22T20:30:27;13.27;;;4.45;;
48522;SDS011;34315;50.150;11.070;2023-06-22T20:35:28;11.63;;;5.53;;
48522;SDS011;34315;50.150;11.070;2023-06-22T20:40:29;13.48;;;5.25;;
48522;SDS011;34315;50.150;11.070;2023-06-22T20:45:31;14.27;;;5.03;;
48522;SDS011;34315;50.150;11.070;2023-06-22T20:50:32;15.10;;;4.97;;
48522;SDS011;34315;50.150;11.070;2023-06-22T20:55:34;17.42;;;5.57;;
48522;SDS011;34315;50.150;11.070;2023-06-22T21:00:40;20.13;;;6.57;;
48522;SDS011;34315;50.150;11.070;2023-06-22T21:05:42;15.90;;;5.80;;
48522;SDS011;34315;50.150;11.070;2023-06-22T21:10:43;14.48;;;6.18;;
48522;SDS011;34315;50.150;11.070;2023-06-22T21:15:44;12.68;;;5.40;;
48522;SDS011;34315;50.150;11.070;2023-06-22T21:20:45;16.95;;;5.47;;
48522;SDS011;34315;50.150;11.070;2023-06-22T21:25:46;17.75;;;6.22;;
48522;SDS011;34315;50.150;11.070;2023-06-22T21:30:50;13.33;;;5.50;;
48522;SDS011;34315;50.150;11.070;2023-06-22T21:35:51;10.90;;;5.88;;
48522;SDS011;34315;50.150;11.070;2023-06-22T21:40:53;12.10;;;6.00;;
48522;SDS011;34315;50.150;11.070;2023-06-22T21:45:54;16.50;;;5.50;;
48522;SDS011;34315;50.150;11.070;2023-06-22T21:50:55;12.70;;;5.20;;
48522;SDS011;34315;50.150;11.070;2023-06-22T21:55:56;13.93;;;5.53;;
48522;SDS011;34315;50.150;11.070;2023-06-22T22:00:57;16.48;;;5.47;;
48522;SDS011;34315;50.150;11.070;2023-06-22T22:05:59;10.25;;;5.05;;
48522;SDS011;34315;50.150;11.070;2023-06-22T22:11:00;13.65;;;5.47;;
48522;SDS011;34315;50.150;11.070;2023-06-22T22:16:01;14.27;;;5.35;;
48522;SDS011;34315;50.150;11.070;2023-06-22T22:21:02;15.07;;;4.90;;
48522;SDS011;34315;50.150;11.070;2023-06-22T22:26:03;12.73;;;5.68;;
48522;SDS011;34315;50.150;11.070;2023-06-22T22:31:04;16.08;;;5.97;;
48522;SDS011;34315;50.150;11.070;2023-06-22T22:36:05;10.55;;;5.50;;
48522;SDS011;34315;50.150;11.070;2023-06-22T22:41:08;12.57;;;5.45;;
48522;SDS011;34315;50.150;11.070;2023-06-22T22:46:09;15.68;;;5.50;;
48522;SDS011;34315;50.150;11.070;2023-06-22T22:51:10;13.23;;;5.30;;
48522;SDS011;34315;50.150;11.070;2023-06-22T22:56:11;15.48;;;5.53;;
48522;SDS011;34315;50.150;11.070;2023-06-22T23:01:12;13.07;;;5.32;;
48522;SDS011;34315;50.150;11.070;2023-06-22T23:06:13;14.05;;;5.85;;
48522;SDS011;34315;50.150;11.070;2023-06-22T23:11:14;14.13;;;5.82;;
48522;SDS011;34315;50.150;11.070;2023-06-22T23:16:16;10.32;;;5.40;;
48522;SDS011;34315;50.150;11.070;2023-06-22T23:21:17;13.73;;;6.93;;
48522;SDS011;34315;50.150;11.070;2023-06-22T23:26:18;11.43;;;5.55;;
48522;SDS011;34315;50.150;11.070;2023-06-22T23:31:19;11.35;;;5.60;;
48522;SDS011;34315;50.150;11.070;2023-06-22T23:36:20;15.10;;;5.88;;
48522;SDS011;34315;50.150;11.070;2023-06-22T23:41:23;14.80;;;6.20;;
48522;SDS011;34315;50.150;11.070;2023-06-22T23:46:28;15.40;;;5.22;;
48522;SDS011;34315;50.150;11.070;2023-06-22T23:51:31;10.90;;;5.57;;
48522;SDS011;34315;50.150;11.070;2023-06-22T23:56:32;13.80;;;6.68;;
